Humidity-temperature Sensor

Selected Measurement Type: Air Temperature

 
Air Temperature [°C]     6 entries per hour
Showing data from 3/7/2017 (00:00:00 Z) to 2/28/2017 (00:01:00 Z)
Previous Next [ Day | 3-Days | 7-Days ]
First Last
Prev [ Day | 3-Days | 7-Days ] Next
First Last

Start Time:     :
End Time:     :     
Time (in GMT) :00 :50 :40 :30 :20 :10
Previous Next [ Day | 3-Days | 7-Days ]
First Last
Prev [ Day | 3-Days | 7-Days ] Next
First Last


123 => good data
MM => data is determined as missing
-- => data not received/configured
Back to Top Back to Top
3/7/2017 00:00 to 23:10 26.79 26.75 26.87 26.72 26.77 26.90
3/6/2017 23:00 to 22:10 26.93 26.84 26.79 26.85 26.76 26.67
3/6/2017 22:00 to 21:10 26.66 26.68 26.62 26.64 26.67 26.61
3/6/2017 21:00 to 20:10 26.62 26.64 26.59 26.54 26.45 26.41
3/6/2017 20:00 to 19:10 26.35 26.42 26.43 26.39 26.39 26.37
3/6/2017 19:00 to 18:10 26.36 26.34 26.39 26.28 26.38 26.44
3/6/2017 18:00 to 17:10 26.45 26.40 26.19 26.31 26.42 26.35
3/6/2017 17:00 to 16:10 26.44 26.40 26.32 26.31 26.26 26.16
3/6/2017 16:00 to 15:10 26.12 26.19 25.94 25.85 25.76 25.78
3/6/2017 15:00 to 14:10 25.71 25.29 25.82 25.76 25.71 25.80
3/6/2017 14:00 to 13:10 25.71 25.87 25.78 25.73 25.73 25.74
3/6/2017 13:00 to 12:10 25.77 25.75 25.72 25.75 25.78 25.79
3/6/2017 12:00 to 11:10 25.85 25.85 25.85 25.78 25.82 25.75
3/6/2017 11:00 to 10:10 25.75 25.81 25.93 25.75 25.79 25.80
3/6/2017 10:00 to 9:10 -- -- -- -- -- --
3/6/2017 09:00 to 8:10 25.92 25.92 25.97 25.95 26.04 26.08
3/6/2017 08:00 to 7:10 26.02 26.01 26.08 26.08 26.10 26.14
3/6/2017 07:00 to 6:10 26.18 26.21 26.19 26.17 26.22 26.23
3/6/2017 06:00 to 5:10 26.26 26.30 26.30 26.42 26.35 26.37
3/6/2017 05:00 to 4:10 26.32 26.38 26.40 26.39 26.41 26.46
3/6/2017 04:00 to 3:10 26.46 26.42 26.44 26.46 26.45 26.40
3/6/2017 03:00 to 2:10 26.42 26.43 26.43 26.45 26.44 26.59
3/6/2017 02:00 to 1:10 26.53 26.62 26.59 26.54 26.63 26.59
3/6/2017 01:00 to 0:10 26.57 26.69 26.63 26.64 26.68 26.62
3/6/2017 00:00 to 23:10 26.56 26.63 26.62 26.62 26.54 26.61
3/5/2017 23:00 to 22:10 26.52 26.46 26.42 26.48 26.34 26.35
3/5/2017 22:00 to 21:10 26.33 26.23 26.28 26.22 26.21 26.22
3/5/2017 21:00 to 20:10 26.20 26.18 26.14 26.16 26.05 26.10
3/5/2017 20:00 to 19:10 26.18 26.13 26.14 25.98 26.01 26.08
3/5/2017 19:00 to 18:10 25.94 26.07 26.05 26.04 26.03 26.05
3/5/2017 18:00 to 17:10 26.09 26.04 25.96 26.00 25.98 26.00
3/5/2017 17:00 to 16:10 26.04 26.03 26.12 26.09 26.14 26.12
3/5/2017 16:00 to 15:10 26.03 26.07 26.04 25.61 25.50 25.51
3/5/2017 15:00 to 14:10 25.67 25.59 25.54 25.54 25.40 25.45
3/5/2017 14:00 to 13:10 25.42 25.49 25.50 25.45 25.49 25.51
3/5/2017 13:00 to 12:10 25.49 25.56 25.49 25.45 25.57 25.55
3/5/2017 12:00 to 11:10 25.55 25.58 25.53 25.55 25.51 25.60
3/5/2017 11:00 to 10:10 -- -- -- -- -- --
3/5/2017 10:00 to 9:10 25.49 25.57 25.52 25.63 25.67 25.70
3/5/2017 09:00 to 8:10 25.70 25.71 25.68 25.76 25.77 25.77
3/5/2017 08:00 to 7:10 25.81 25.85 25.79 25.90 25.83 25.92
3/5/2017 07:00 to 6:10 25.87 25.86 25.92 25.98 25.88 25.90
3/5/2017 06:00 to 5:10 25.94 25.90 25.92 25.89 25.87 25.96
3/5/2017 05:00 to 4:10 -- -- -- -- -- --
3/5/2017 04:00 to 3:10 -- -- -- -- -- --
3/5/2017 03:00 to 2:10 26.11 26.05 26.07 26.07 26.12 26.14
3/5/2017 02:00 to 1:10 26.26 26.36 26.39 26.36 26.35 26.29
3/5/2017 01:00 to 0:10 26.44 26.28 26.32 26.28 26.28 26.32
3/5/2017 00:00 to 23:10 26.44 26.28 26.33 26.34 26.33 26.30
3/4/2017 23:00 to 22:10 26.28 26.34 26.50 26.45 26.37 26.38
3/4/2017 22:00 to 21:10 26.34 26.33 26.40 26.35 26.31 26.36
3/4/2017 21:00 to 20:10 26.31 26.24 26.38 26.39 26.32 26.31
3/4/2017 20:00 to 19:10 26.31 26.33 26.27 26.32 26.32 26.18
3/4/2017 19:00 to 18:10 26.25 26.22 26.21 26.32 26.27 26.17
3/4/2017 18:00 to 17:10 26.20 26.25 26.28 26.29 26.26 26.36
3/4/2017 17:00 to 16:10 26.37 26.35 26.34 26.33 26.12 26.25
3/4/2017 16:00 to 15:10 26.22 26.31 26.15 26.06 26.04 25.98
3/4/2017 15:00 to 14:10 25.98 25.96 25.86 25.88 25.81 25.82
3/4/2017 14:00 to 13:10 25.80 25.94 25.72 25.90 25.82 25.85
3/4/2017 13:00 to 12:10 -- -- -- -- -- --
3/4/2017 12:00 to 11:10 25.89 25.92 25.82 25.87 25.82 25.82
3/4/2017 11:00 to 10:10 25.86 25.80 25.83 25.90 25.98 26.00
3/4/2017 10:00 to 9:10 25.98 25.89 25.92 25.88 25.89 25.89
3/4/2017 09:00 to 8:10 25.97 26.02 26.07 26.00 26.03 26.03
3/4/2017 08:00 to 7:10 26.00 26.12 26.11 26.13 26.08 26.11
3/4/2017 07:00 to 6:10 26.08 26.13 26.15 26.17 26.13 26.09
3/4/2017 06:00 to 5:10 26.17 26.14 26.12 26.17 26.18 26.28
3/4/2017 05:00 to 4:10 26.31 26.23 26.22 26.24 26.23 26.14
3/4/2017 04:00 to 3:10 26.21 26.17 26.31 26.29 26.29 26.32
3/4/2017 03:00 to 2:10 -- -- -- -- -- --
3/4/2017 02:00 to 1:10 -- -- -- -- -- --
3/4/2017 01:00 to 0:10 26.44 26.53 26.47 26.52 26.46 26.50
3/4/2017 00:00 to 23:10 26.53 26.41 26.41 26.51 26.42 26.36
3/3/2017 23:00 to 22:10 26.28 26.34 26.27 26.33 26.34 26.29
3/3/2017 22:00 to 21:10 26.29 26.22 26.23 26.16 26.21 26.16
3/3/2017 21:00 to 20:10 26.18 26.19 26.08 26.07 26.04 26.08
3/3/2017 20:00 to 19:10 26.07 26.02 26.01 26.13 26.12 26.00
3/3/2017 19:00 to 18:10 25.97 26.07 25.98 26.14 26.11 26.12
3/3/2017 18:00 to 17:10 26.06 26.07 26.02 26.07 26.08 26.08
3/3/2017 17:00 to 16:10 26.05 26.10 26.21 26.16 26.14 26.15
3/3/2017 16:00 to 15:10 26.00 25.91 25.86 26.05 25.70 25.72
3/3/2017 15:00 to 14:10 -- -- -- -- -- --
3/3/2017 14:00 to 13:10 25.69 25.63 25.53 25.71 25.60 25.57
3/3/2017 13:00 to 12:10 25.62 25.56 25.51 25.53 25.62 25.52
3/3/2017 12:00 to 11:10 25.62 25.55 25.59 25.63 25.59 25.55
3/3/2017 11:00 to 10:10 25.62 25.65 25.63 25.68 25.61 25.50
3/3/2017 10:00 to 9:10 -- -- -- -- -- --
3/3/2017 09:00 to 8:10 25.60 25.74 25.71 25.66 25.72 25.70
3/3/2017 08:00 to 7:10 25.69 25.65 25.69 25.80 25.70 25.75
3/3/2017 07:00 to 6:10 25.85 25.95 25.85 25.85 25.90 25.88
3/3/2017 06:00 to 5:10 25.89 25.92 25.91 25.97 25.95 26.06
3/3/2017 05:00 to 4:10 26.04 26.01 26.07 26.08 26.00 26.07
3/3/2017 04:00 to 3:10 26.05 26.11 26.10 26.13 26.19 26.13
3/3/2017 03:00 to 2:10 26.18 26.13 26.15 26.14 26.22 26.36
3/3/2017 02:00 to 1:10 26.44 26.45 26.39 26.45 26.41 26.39
3/3/2017 01:00 to 0:10 26.40 26.40 26.39 26.38 26.24 26.34
3/3/2017 00:00 to 23:10 26.45 26.25 26.21 26.23 26.29 26.15
3/2/2017 23:00 to 22:10 26.26 26.21 26.12 26.13 26.14 26.17
3/2/2017 22:00 to 21:10 26.13 26.05 26.04 26.05 26.11 26.11
3/2/2017 21:00 to 20:10 26.01 26.02 26.01 26.12 25.93 25.88
3/2/2017 20:00 to 19:10 26.04 26.00 26.10 26.08 26.14 25.94
3/2/2017 19:00 to 18:10 25.91 26.08 26.00 26.15 26.02 26.06
3/2/2017 18:00 to 17:10 26.06 26.21 26.12 26.18 26.20 26.25
3/2/2017 17:00 to 16:10 26.16 26.18 26.19 26.21 26.24 26.25
3/2/2017 16:00 to 15:10 26.33 26.25 26.25 26.14 26.13 25.96
3/2/2017 15:00 to 14:10 26.00 26.06 25.83 25.93 25.75 25.79
3/2/2017 14:00 to 13:10 25.95 25.90 25.77 25.82 25.82 25.91
3/2/2017 13:00 to 12:10 25.86 25.94 25.86 25.90 25.96 25.85
3/2/2017 12:00 to 11:10 25.79 25.86 25.78 25.85 25.92 25.93
3/2/2017 11:00 to 10:10 25.83 25.86 25.79 25.82 25.94 26.03
3/2/2017 10:00 to 9:10 25.81 25.91 25.91 25.91 25.89 25.88
3/2/2017 09:00 to 8:10 26.00 25.98 26.11 26.03 26.08 26.08
3/2/2017 08:00 to 7:10 26.05 26.05 26.13 26.22 26.21 26.20
3/2/2017 07:00 to 6:10 26.18 26.21 26.17 26.19 26.24 26.22
3/2/2017 06:00 to 5:10 26.18 26.28 26.42 26.33 26.35 26.37
3/2/2017 05:00 to 4:10 26.40 26.42 26.39 26.37 26.53 26.44
3/2/2017 04:00 to 3:10 26.47 26.38 26.34 26.39 26.38 26.34
3/2/2017 03:00 to 2:10 26.29 26.37 26.34 26.34 26.32 26.41
3/2/2017 02:00 to 1:10 26.52 26.44 26.60 26.59 26.71 26.63
3/2/2017 01:00 to 0:10 26.58 26.60 26.58 26.59 26.65 26.59
3/2/2017 00:00 to 23:10 26.52 26.41 26.41 26.60 26.49 26.51
3/1/2017 23:00 to 22:10 26.49 26.54 26.56 26.53 26.48 26.38
3/1/2017 22:00 to 21:10 26.36 26.35 26.43 26.42 26.42 26.45
3/1/2017 21:00 to 20:10 26.40 26.40 26.42 26.51 26.35 26.48
3/1/2017 20:00 to 19:10 26.42 26.44 26.27 26.30 26.42 26.37
3/1/2017 19:00 to 18:10 26.44 26.45 26.55 26.50 26.42 26.55
3/1/2017 18:00 to 17:10 26.57 26.45 26.56 26.54 26.71 26.60
3/1/2017 17:00 to 16:10 26.60 26.55 26.52 26.59 26.54 26.54
3/1/2017 16:00 to 15:10 26.66 26.55 26.39 26.35 26.42 26.63
3/1/2017 15:00 to 14:10 26.49 26.39 26.42 26.30 26.37 26.47
3/1/2017 14:00 to 13:10 26.35 26.38 26.19 25.78 25.42 25.54
3/1/2017 13:00 to 12:10 26.48 26.56 26.44 26.52 26.20 26.44
3/1/2017 12:00 to 11:10 26.42 26.31 26.33 26.36 26.34 26.34
3/1/2017 11:00 to 10:10 26.37 26.40 26.34 26.47 26.48 26.25
3/1/2017 10:00 to 9:10 26.48 26.56 26.61 26.51 26.50 26.52
3/1/2017 09:00 to 8:10 26.57 26.61 26.60 26.57 26.64 26.62
3/1/2017 08:00 to 7:10 26.64 26.70 26.72 26.71 26.75 26.69
3/1/2017 07:00 to 6:10 26.73 26.80 26.76 26.78 26.87 26.85
3/1/2017 06:00 to 5:10 26.80 26.80 26.85 26.87 26.87 26.81
3/1/2017 05:00 to 4:10 26.85 26.90 26.91 26.89 26.92 26.92
3/1/2017 04:00 to 3:10 26.94 26.92 26.95 26.92 26.97 26.96
3/1/2017 03:00 to 2:10 26.96 27.04 26.90 26.96 27.11 27.04
3/1/2017 02:00 to 1:10 27.04 27.14 27.07 27.08 27.10 27.05
3/1/2017 01:00 to 0:10 27.02 26.93 26.86 26.81 26.70 26.66
3/1/2017 00:00 to 23:10 26.50 26.38 27.16 27.08 27.06 27.13
2/28/2017 23:00 to 22:10 27.02 27.03 27.04 26.98 26.98 26.96
2/28/2017 22:00 to 21:10 26.73 26.58 26.38 26.34 25.80 25.49
2/28/2017 21:00 to 20:10 25.13 25.06 26.20 26.08 25.78 25.70
2/28/2017 20:00 to 19:10 26.06 26.29 26.28 26.12 25.98 26.41
2/28/2017 19:00 to 18:10 26.14 26.32 26.20 26.55 26.53 26.52
2/28/2017 18:00 to 17:10 26.39 26.40 26.26 26.21 26.16 26.25
2/28/2017 17:00 to 16:10 26.21 26.11 26.10 25.94 25.94 25.86
2/28/2017 16:00 to 15:10 25.82 25.71 25.86 25.77 25.74 25.72
2/28/2017 15:00 to 14:10 25.59 25.49 25.41 25.34 25.31 25.43
2/28/2017 14:00 to 13:10 25.25 25.40 25.40 25.82 25.87 25.86
2/28/2017 13:00 to 12:10 26.03 25.91 26.24 26.27 26.27 26.23
2/28/2017 12:00 to 11:10 26.18 26.16 26.11 26.25 26.14 26.11
2/28/2017 11:00 to 10:10 26.24 26.17 26.13 26.20 26.10 26.14
2/28/2017 10:00 to 9:10 -- -- -- -- -- --
2/28/2017 09:00 to 8:10 26.32 26.29 26.28 26.29 26.29 26.26
2/28/2017 08:00 to 7:10 26.27 26.26 26.34 26.37 26.39 26.44
2/28/2017 07:00 to 6:10 26.40 26.26 26.40 26.39 26.39 26.31
2/28/2017 06:00 to 5:10 26.34 26.29 26.25 26.29 26.17 26.22
2/28/2017 05:00 to 4:10 26.25 26.26 26.21 26.29 26.18 26.11
2/28/2017 04:00 to 3:10 26.14 26.03 26.21 25.96 25.76 25.75
2/28/2017 03:00 to 2:10 26.01 25.82 26.12 26.04 26.17 26.18
2/28/2017 02:00 to 1:10 26.26 26.25 26.37 26.62 26.54 26.45
2/28/2017 01:00 to 0:10 26.57 26.40 26.39 26.30 26.50 26.50